Latest Weather Observations for Thredbo Top Station

IDN60801

Issued at 2:02 am EST Friday 27 May 2016 (issued every 30 minutes, with the page automatically refreshed every 10 minutes)

About weather observations | Map of weather stations | Latest weather observations for NSW | Other Formats
Station Details ID: 071032 Name: THREDBO AWS Lat: -36.49 Lon: 148.29 Height: 1957.0 m
Data from the previous 72 hours. | See also: Recent months at Thredbo Top Station
Date/Time
EST
Temp
°C
App
Temp
°C
Dew
Point
Rel
Hum
%
Delta-T
°C
Wind Press
QNH
hPa
Press
MSL
hPa
Rain
since 9 am
mm
Dir
 
Spd
km/h
Gust
km/h
Spd
kts
Gust
kts
27/02:00am -2.2 -9.8 -2.3 99 -0.1 WSW 28 41 15 22 - - 6.4
27/01:43am -2.2 -9.8 -2.3 99 -0.1 WSW 28 46 15 25 - - 6.4
27/01:30am -2.1 -9.7 -2.2 99 -0.1 WSW 28 39 15 21 - - 6.4
27/01:00am -2.2 -9.8 -2.3 99 -0.1 WSW 28 46 15 25 - - 6.4
27/12:51am -2.1 -10.1 -2.2 99 -0.1 WSW 30 48 16 26 - - 6.4
27/12:30am -2.0 -10.4 -2.1 99 -0.1 WSW 32 46 17 25 - - 6.4
27/12:00am -1.9 -11.2 -2.0 99 -0.1 WSW 37 50 20 27 - - 6.4
 
Date/Time
EST
Temp
°C
App
Temp
°C
Dew
Point
Rel
Hum
%
Delta-T
°C
Wind Press
QNH
hPa
Press
MSL
hPa
Rain
since 9 am
mm
Dir
 
Spd
km/h
Gust
km/h
Spd
kts
Gust
kts
26/11:45pm -1.9 -9.5 -2.0 99 -0.1 WSW 28 48 15 26 - - 6.4
26/11:30pm -1.8 -9.7 -1.9 99 -0.1 WSW 30 39 16 21 - - 6.4
26/11:00pm -1.8 -8.6 -1.9 99 -0.1 WSW 24 41 13 22 - - 6.4
26/10:30pm -1.8 -9.7 -1.9 99 -0.1 WSW 30 44 16 24 - - 6.4
26/10:00pm -1.9 -10.2 -2.0 99 -0.1 SW 32 44 17 24 - - 6.4
26/09:33pm -1.7 -9.6 -1.8 99 0.0 SW 30 48 16 26 - - 6.4
26/09:30pm -1.6 -9.9 -1.7 99 0.0 SW 32 44 17 24 - - 6.4
26/09:00pm -1.5 -8.6 -1.6 99 0.0 SW 26 35 14 19 - - 6.4
26/08:30pm -0.2 -6.8 -0.3 99 0.0 WNW 24 35 13 19 - - 6.4
26/08:00pm -0.4 -8.2 -0.5 99 0.0 WNW 30 41 16 22 - - 6.4
26/07:30pm -0.3 -7.3 -0.4 99 0.0 WNW 26 39 14 21 - - 6.4
26/07:00pm -0.4 -9.1 -0.5 99 0.0 WNW 35 57 19 31 - - 6.4
26/06:30pm -0.6 -10.9 -0.7 99 0.0 WNW 43 65 23 35 - - 6.4
26/06:00pm -0.2 -10.4 -0.3 99 0.0 WNW 43 61 23 33 - - 6.4
26/05:30pm -0.3 -9.0 -0.4 99 0.0 WNW 35 54 19 29 - - 6.4
26/05:00pm -0.2 -8.9 -0.3 99 0.0 W 35 54 19 29 - - 6.4
26/04:30pm -0.1 -9.9 -0.2 99 0.0 W 41 69 22 37 - - 6.4
26/04:00pm 0.0 -9.4 -0.1 99 0.0 W 39 65 21 35 - - 6.4
26/03:30pm -0.1 -9.1 -0.2 99 0.0 WNW 37 61 20 33 - - 6.4
26/03:00pm 0.1 -9.3 0.0 99 0.0 W 39 59 21 32 - - 6.0
26/02:30pm 0.2 -7.1 0.1 99 0.0 WNW 28 50 15 27 - - 5.4
26/02:00pm 0.1 -8.0 0.0 99 0.0 NW 32 52 17 28 - - 4.4
26/01:47pm 0.1 -9.3 0.0 99 0.0 NW 39 57 21 31 - - 4.2
26/01:30pm 0.0 -8.6 -0.1 99 0.0 NW 35 50 19 27 - - 4.0
26/01:00pm 0.0 -9.8 -0.1 99 0.0 NNW 41 54 22 29 - - 3.6
26/12:30pm 0.0 -11.1 -0.1 99 0.0 NNW 48 59 26 32 - - 3.0
26/12:00pm 0.0 -10.7 -0.1 99 0.0 NNW 46 61 25 33 - - 2.6
26/11:40am 0.1 -10.6 0.0 99 0.0 NNW 46 65 25 35 - - 2.4
26/11:30am 0.0 -10.7 -0.1 99 0.0 NNW 46 63 25 34 - - 2.4
26/11:29am 0.1 -10.2 0.0 99 0.0 NNW 44 63 24 34 - - 2.2
26/11:00am 0.2 -11.3 0.1 99 0.0 NNW 50 67 27 36 - - 1.8
26/10:30am 0.0 -10.2 -0.1 99 0.0 NNW 43 61 23 33 - - 1.8
26/10:27am 0.1 -10.1 0.0 99 0.0 NNW 43 61 23 33 - - 1.8
26/10:00am 0.1 -9.7 0.0 99 0.0 NNW 41 56 22 30 - - 1.4
26/09:30am 0.0 -9.4 -0.1 99 0.0 NNW 39 50 21 27 - - 0.6
26/09:00am 0.0 -10.4 -0.1 99 0.0 NNW 44 54 24 29 - - 1.6
26/08:30am 0.0 -10.4 -0.1 99 0.0 NNW 44 57 24 31 - - 1.4
26/08:00am 0.0 -10.7 -0.1 99 0.0 NNW 46 63 25 34 - - 1.4
26/07:30am 0.0 -12.3 -0.1 99 0.0 NNW 54 65 29 35 - - 1.4
26/07:00am 0.0 -13.6 -0.1 99 0.0 NNW 61 76 33 41 - - 1.4
26/06:30am 0.0 -14.0 -0.1 99 0.0 NNW 63 78 34 42 - - 1.4
26/06:00am 0.0 -13.6 -0.1 99 0.0 NNW 61 76 33 41 - - 1.2
26/05:30am 0.0 -15.3 -0.1 99 0.0 NNW 70 85 38 46 - - 1.2
26/05:02am 0.1 -17.5 0.0 99 0.0 NNW 82 100 44 54 - - 1.0
26/05:00am 0.0 -17.8 -0.1 99 0.0 NNW 83 100 45 54 - - 1.0
26/04:30am 0.1 -16.3 0.0 99 0.0 NNW 76 96 41 52 - - 1.0
26/04:00am 0.1 -16.3 0.0 99 0.0 NNW 76 98 41 53 - - 0.6
26/03:41am 0.2 -14.1 0.1 99 0.0 NNW 65 83 35 45 - - 0.6
26/03:30am 0.0 -14.0 -0.1 99 0.0 NNW 63 78 34 42 - - 0.6
26/03:00am 0.1 -16.3 0.0 99 0.0 NNW 76 91 41 49 - - 0.4
26/02:30am 0.1 -15.6 0.0 99 0.0 NNW 72 89 39 48 - - 0.0
26/02:09am 0.1 -15.6 0.0 99 0.0 NW 72 91 39 49 - - 0.0
26/02:00am 0.0 -16.1 -0.1 99 0.0 NNW 74 91 40 49 - - 0.0
26/01:51am 0.0 -15.7 -0.1 99 0.0 NNW 72 91 39 49 - - 0.0
26/01:30am -0.1 -15.2 -0.2 99 0.0 NNW 69 82 37 44 - - 0.0
26/01:00am 0.0 -14.7 -0.1 99 0.0 NNW 67 80 36 43 - - 0.0
26/12:30am -0.1 -14.5 -0.2 99 0.0 NNW 65 83 35 45 - - 0.0
26/12:00am 0.0 -12.8 -0.1 99 0.0 NNW 57 72 31 39 - - 0.0
 
Date/Time
EST
Temp
°C
App
Temp
°C
Dew
Point
Rel
Hum
%
Delta-T
°C
Wind Press
QNH
hPa
Press
MSL
hPa
Rain
since 9 am
mm
Dir
 
Spd
km/h
Gust
km/h
Spd
kts
Gust
kts
25/11:57pm 0.0 -12.6 -0.1 99 0.0 NNW 56 72 30 39 - - 0.0
25/11:34pm 0.0 -9.8 -0.1 99 0.0 NNW 41 61 22 33 - - 0.0
25/11:30pm -0.2 -10.4 -0.3 99 0.0 NNW 43 56 23 30 - - 0.0
25/11:26pm -0.3 -11.1 -0.4 99 0.0 NNW 46 61 25 33 - - 0.0
25/11:00pm -0.9 -13.9 -1.0 99 0.0 NW 57 70 31 38 - - 0.0
25/10:58pm -1.0 -14.0 -1.1 99 0.0 NW 57 70 31 38 - - 0.0
25/10:30pm -0.7 -11.0 -0.8 99 0.0 NW 43 70 23 38 - - 0.0
25/10:14pm -0.8 -12.4 -0.9 99 0.0 NNW 50 69 27 37 - - 0.0
25/10:13pm -0.9 -12.9 -1.0 99 0.0 NNW 52 72 28 39 - - 0.0
25/10:00pm -1.0 -15.6 -1.8 94 0.3 NNW 65 85 35 46 - - 0.0
25/09:30pm -0.9 -15.9 -2.0 92 0.4 NNW 67 87 36 47 - - 0.0
25/09:29pm -0.9 -15.5 -2.3 90 0.5 NNW 65 87 35 47 - - 0.0
25/09:00pm -0.8 -15.8 -2.4 89 0.6 NNW 67 80 36 43 - - 0.0
25/08:30pm -0.9 -13.9 -1.5 96 0.2 NW 57 78 31 42 - - 0.0
25/08:08pm -0.9 -12.5 -1.0 99 0.0 NW 50 69 27 37 - - 0.0
25/08:00pm -0.8 -13.2 -0.9 99 0.0 NNW 54 69 29 37 - - 0.0
25/07:46pm -0.8 -12.0 -0.9 99 0.0 NW 48 67 26 36 - - 0.0
25/07:30pm -0.5 -13.3 -1.6 92 0.4 NNW 56 70 30 38 - - 0.0
25/07:00pm -0.9 -12.5 -1.0 99 0.0 NW 50 70 27 38 - - 0.0
25/06:30pm -0.9 -12.5 -1.0 99 0.0 NW 50 69 27 37 - - 0.0
25/06:12pm -0.9 -11.4 -1.0 99 0.0 NW 44 63 24 34 - - 0.0
25/06:00pm -0.8 -11.3 -1.2 97 0.1 NW 44 59 24 32 - - 0.0
25/05:30pm -0.8 -9.0 -1.1 98 0.1 NW 32 50 17 27 - - 0.0
25/05:10pm -0.7 -8.6 -1.4 95 0.2 NW 30 48 16 26 - - 0.0
25/05:00pm -0.6 -9.0 -1.3 95 0.2 NW 33 50 18 27 - - 0.0
25/04:58pm -0.6 -8.8 -1.3 95 0.2 NW 32 50 17 27 - - 0.0
25/04:30pm 0.0 -9.5 -3.4 78 1.3 NW 37 46 20 25 - - 0.0
25/04:00pm 0.3 -9.5 -3.2 77 1.4 NW 39 46 21 25 - - 0.0
25/03:30pm 0.9 -8.9 -3.4 73 1.7 NW 39 46 21 25 - - 0.0
25/03:00pm -0.1 -10.6 -1.4 91 0.5 NW 44 59 24 32 - - 0.0
25/02:30pm -0.1 -11.8 -1.7 89 0.6 NW 50 57 27 31 - - 0.0
25/02:00pm 0.6 -10.4 -2.4 80 1.2 NW 46 56 25 30 - - 0.0
25/01:30pm 2.7 -8.3 -1.8 72 1.8 NW 46 57 25 31 - - 0.0
25/01:00pm 2.1 -8.3 -5.1 59 2.8 NW 41 54 22 29 - - 0.0
25/12:30pm 0.4 -10.6 -2.1 83 1.0 NW 46 59 25 32 - - 0.0
25/12:00pm 3.6 -7.7 -8.4 41 4.4 NW 44 56 24 30 1014.3 1013.8 0.0
25/11:42am 4.4 -6.9 -10.8 32 5.3 NW 43 63 23 34 1014.4 1013.9 0.0
25/11:30am 3.8 -8.0 -10.2 35 4.9 NW 46 59 25 32 1014.5 1014.0 0.0
25/11:00am 3.2 -7.6 -9.4 39 4.4 NW 41 56 22 30 1015.1 1014.7 0.0
25/10:30am 1.6 -8.6 -11.5 37 4.2 NW 37 50 20 27 1015.5 1015.0 0.0
25/10:00am 1.9 -7.7 -14.2 29 4.8 NW 33 41 18 22 1016.0 1015.6 0.0
25/09:30am 1.9 -8.1 -13.8 30 4.8 NW 35 46 19 25 1016.2 1015.8 0.0
25/09:00am 1.7 -6.2 -14.0 30 4.7 WNW 24 33 13 18 1016.7 1016.3 0.2
25/08:30am 2.3 -7.2 -15.2 26 5.2 NW 32 39 17 21 1017.0 1016.6 0.2
25/08:00am 1.7 -8.3 -14.8 28 4.9 NW 35 46 19 25 1016.7 1016.3 0.2
25/07:30am 0.1 -10.2 -13.5 35 4.0 NW 37 44 20 24 1017.1 1016.7 0.2
25/07:00am 0.7 -9.2 -13.3 34 4.2 NW 35 43 19 23 1016.8 1016.4 0.2
25/06:30am 0.2 -10.4 -12.1 39 3.7 NW 39 48 21 26 1016.6 1016.2 0.2
25/06:00am 1.1 -9.2 -12.6 35 4.2 WNW 37 46 20 25 1016.6 1016.2 0.2
25/05:30am 1.0 -10.0 -12.0 37 4.0 NW 41 54 22 29 1016.2 1015.8 0.2
25/05:00am 0.4 -9.3 -10.1 45 3.4 NW 35 44 19 24 1016.2 1015.8 0.2
25/04:30am -0.2 -9.8 -8.6 53 2.8 NW 35 44 19 24 1015.9 1015.4 0.2
25/04:00am -0.1 -8.9 -10.6 45 3.3 WNW 30 41 16 22 1016.1 1015.7 0.2
25/03:30am 1.7 -7.3 -13.6 31 4.6 W 30 48 16 26 1016.1 1015.7 0.2
25/03:06am 2.6 -6.8 -14.9 26 5.2 W 32 50 17 27 1016.1 1015.7 0.2
25/03:00am 1.8 -7.5 -13.1 32 4.6 W 32 46 17 25 1016.4 1015.9 0.2
25/02:38am 2.2 -7.2 -13.5 30 4.8 W 32 52 17 28 1016.5 1016.1 0.2
25/02:30am 0.9 -8.4 -11.8 38 4.0 W 32 46 17 25 1016.6 1016.2 0.2
25/02:00am 0.2 -8.9 -10.0 46 3.3 WNW 32 46 17 25 1016.5 1016.1 0.2
25/01:30am 0.4 -8.7 -10.1 45 3.4 W 32 50 17 27 1016.5 1016.1 0.2
25/01:28am 0.7 -8.5 -10.7 42 3.6 W 32 50 17 27 1016.5 1016.1 0.2
25/01:00am 0.9 -7.6 -12.1 37 4.0 WSW 28 41 15 22 1016.8 1016.4 0.2
25/12:36am 0.7 -8.1 -11.0 41 3.7 WSW 30 52 16 28 1017.1 1016.7 0.2
25/12:30am 0.4 -8.4 -10.4 44 3.5 WSW 30 46 16 25 1017.1 1016.7 0.2
25/12:09am 0.8 -8.9 -10.6 42 3.7 WSW 35 56 19 30 1017.2 1016.8 0.2
25/12:00am 0.1 -9.1 -8.6 52 2.9 WSW 33 48 18 26 1017.2 1016.8 0.2
 
Date/Time
EST
Temp
°C
App
Temp
°C
Dew
Point
Rel
Hum
%
Delta-T
°C
Wind Press
QNH
hPa
Press
MSL
hPa
Rain
since 9 am
mm
Dir
 
Spd
km/h
Gust
km/h
Spd
kts
Gust
kts
24/11:41pm 0.2 -8.5 -9.0 50 3.0 WSW 30 48 16 26 1017.4 1017.1 0.2
24/11:30pm 0.2 -9.0 -8.5 52 2.9 WSW 33 48 18 26 1017.6 1017.2 0.2
24/11:00pm 0.5 -8.6 -9.0 49 3.2 W 32 52 17 28 1017.6 1017.2 0.2
24/10:30pm 0.3 -8.8 -7.4 56 2.7 W 33 63 18 34 1017.7 1017.3 0.2
24/10:00pm -0.4 -8.7 -4.8 72 1.6 W 30 52 16 28 1017.9 1017.6 0.2
24/09:34pm 0.4 -8.4 -6.4 60 2.4 W 32 50 17 27 1017.8 1017.5 0.2
24/09:30pm -0.7 -9.3 -3.9 79 1.2 W 32 48 17 26 1017.8 1017.5 0.2
24/09:00pm -0.3 -8.9 -4.4 74 1.5 W 32 52 17 28 1017.8 1017.5 0.2
24/08:46pm -0.2 -8.0 -3.9 76 1.4 W 28 46 15 25 1017.7 1017.3 0.2
24/08:30pm -1.0 -8.6 -2.0 93 0.3 WNW 28 37 15 20 1017.7 1017.3 0.2
24/08:00pm -0.8 -8.4 -1.9 92 0.4 W 28 44 15 24 1017.7 1017.3 0.2
24/07:30pm -0.6 -8.2 -2.2 89 0.6 WNW 28 43 15 23 1017.7 1017.3 0.2
24/07:06pm -0.8 -8.4 -1.8 93 0.4 WNW 28 46 15 25 1017.6 1017.2 0.2
24/07:00pm -0.7 -8.2 -1.5 94 0.3 WNW 28 41 15 22 1017.6 1017.2 0.2
24/06:30pm -0.8 -8.6 -0.9 99 0.0 WNW 30 43 16 23 1017.3 1016.9 0.2
24/06:00pm -0.8 -8.2 -0.9 99 0.0 WNW 28 43 15 23 1017.2 1016.8 0.2
24/05:30pm -0.8 -8.6 -0.9 99 0.0 WNW 30 43 16 23 1017.1 1016.7 0.2
24/05:00pm -0.8 -8.6 -0.9 99 0.0 NW 30 41 16 22 1016.6 1016.2 0.2
24/04:30pm -0.7 -8.1 -0.8 99 0.0 WNW 28 41 15 22 1016.7 1016.3 0.2
24/04:00pm -0.6 -8.4 -0.9 98 0.1 WNW 30 41 16 22 1016.8 1016.4 0.2
24/03:30pm 0.4 -6.7 -1.2 89 0.7 WNW 26 41 14 22 1016.7 1016.3 0.2
24/03:12pm 0.1 -7.8 -1.5 89 0.6 WNW 30 50 16 27 1016.1 1015.7 0.2
24/03:00pm 1.3 -6.3 -1.8 80 1.2 WNW 28 39 15 21 1016.5 1016.1 0.2
24/02:30pm 1.5 -6.2 -2.8 73 1.8 WNW 28 44 15 24 1016.4 1015.9 0.2
24/02:00pm 1.4 -6.5 -1.3 82 1.1 WNW 30 59 16 32 1016.2 1015.8 0.2
24/01:40pm 1.6 -6.0 -1.8 78 1.4 W 28 46 15 25 1016.4 1015.9 0.2
24/01:30pm 1.5 -6.9 -2.6 74 1.7 WNW 32 46 17 25 1016.4 1015.9 0.2
24/01:00pm 0.9 -7.6 -3.0 75 1.6 W 32 43 17 23 1016.5 1016.1 0.2
24/12:30pm 1.1 -7.5 -4.5 66 2.1 W 32 44 17 24 1016.7 1016.3 0.2
24/12:00pm 1.7 -7.3 -5.9 57 2.8 W 33 57 18 31 1016.6 1016.2 0.2
24/11:33am 0.9 -7.7 -4.5 67 2.1 W 32 61 17 33 1016.8 1016.4 0.2
24/11:30am 0.9 -7.8 -4.7 66 2.1 W 32 48 17 26 1017.0 1016.6 0.2
24/11:00am 0.4 -8.2 -4.2 71 1.7 W 32 56 17 30 1017.6 1017.2 0.2
24/10:38am 0.6 -7.3 -5.0 66 2.1 W 28 48 15 26 1017.6 1017.2 0.2
24/10:30am -0.2 -7.9 -2.6 84 0.9 W 28 44 15 24 1017.7 1017.3 0.2
24/10:16am -0.3 -8.0 -3.0 82 1.0 W 28 46 15 25 1017.7 1017.3 0.2
24/10:00am -0.8 -9.0 -3.6 81 1.0 WSW 30 46 16 25 1017.7 1017.3 0.2
24/09:30am -0.9 -8.4 -4.2 78 1.2 W 26 44 14 24 1017.6 1017.2 0.0
24/09:00am -1.2 -9.3 -3.1 87 0.7 WNW 30 48 16 26 1017.1 1016.7 0.0
24/08:30am -1.5 -10.1 -4.2 82 0.9 WNW 32 50 17 27 1017.1 1016.7 0.0
24/08:19am -1.7 -10.2 -3.6 87 0.6 WNW 32 54 17 29 1016.8 1016.4 0.0
24/08:00am -2.0 -10.6 -2.8 94 0.2 WNW 33 46 18 25 1016.8 1016.4 0.0
24/07:30am -2.5 -11.9 -3.2 95 0.1 NW 37 48 20 26 1016.5 1016.1 0.0
24/07:17am -2.7 -12.2 -3.4 95 0.1 NW 37 57 20 31 1016.2 1015.8 0.0
24/07:00am -2.9 -12.0 -3.2 98 0.0 NW 35 50 19 27 1016.2 1015.8 0.0
24/06:30am -2.7 -11.7 -2.8 99 -0.1 NW 35 48 19 26 1016.1 1015.7 0.0
24/06:00am -2.7 -12.1 -3.0 98 0.0 NW 37 50 20 27 1015.6 1015.2 0.0
24/05:30am -2.7 -12.5 -2.8 99 -0.1 NW 39 52 21 28 1015.3 1014.8 0.0
24/05:00am -2.6 -12.4 -2.7 99 -0.1 NW 39 52 21 28 1015.1 1014.7 0.0
24/04:30am -2.1 -11.8 -2.2 99 -0.1 NW 39 50 21 27 1015.6 1015.2 0.0
24/04:00am -2.1 -12.2 -2.2 99 -0.1 NW 41 56 22 30 1015.4 1014.9 0.0
24/03:34am -1.9 -11.9 -2.0 99 -0.1 NW 41 61 22 33 1014.9 1014.4 0.0
24/03:30am -1.9 -11.6 -2.0 99 -0.1 NW 39 52 21 28 1015.0 1014.5 0.0
24/03:00am -1.6 -11.2 -1.7 99 0.0 NW 39 61 21 33 1015.7 1015.3 0.0
24/02:53am -1.6 -11.6 -1.7 99 0.0 NW 41 61 22 33 1015.3 1014.8 0.0
24/02:30am -1.7 -11.0 -1.8 99 0.0 NW 37 54 20 29 1016.0 1015.6 0.0
24/02:03am -1.6 -10.5 -1.7 99 0.0 NW 35 56 19 30 1016.1 1015.7 0.0

Other Formats:

Comma delimited format used in spreadsheet applications
http://www.bom.gov.au/fwo/IDN60801/IDN60801.95909.axf

JavaScript Object Notation format (JSON) in row-major order
http://www.bom.gov.au/fwo/IDN60801/IDN60801.95909.json